sensor_id;sensor_type;location;lat;lon;timestamp;P1;durP1;ratioP1;P2;durP2;ratioP2
77838;SDS011;67034;43.226;27.932;2023-03-01T00:03:11;4.68;;;2.83;;
77838;SDS011;67034;43.226;27.932;2023-03-01T00:10:36;5.28;;;3.20;;
77838;SDS011;67034;43.226;27.932;2023-03-01T00:13:02;5.45;;;2.88;;
77838;SDS011;67034;43.226;27.932;2023-03-01T00:17:53;4.68;;;2.92;;
77838;SDS011;67034;43.226;27.932;2023-03-01T00:22:45;4.30;;;2.70;;
77838;SDS011;67034;43.226;27.932;2023-03-01T00:25:11;5.28;;;3.28;;
77838;SDS011;67034;43.226;27.932;2023-03-01T00:30:02;5.32;;;3.15;;
77838;SDS011;67034;43.226;27.932;2023-03-01T00:32:28;6.55;;;4.07;;
77838;SDS011;67034;43.226;27.932;2023-03-01T00:34:54;5.32;;;3.35;;
77838;SDS011;67034;43.226;27.932;2023-03-01T00:42:13;5.28;;;3.40;;
77838;SDS011;67034;43.226;27.932;2023-03-01T00:44:38;8.18;;;4.25;;
77838;SDS011;67034;43.226;27.932;2023-03-01T00:49:29;4.25;;;3.00;;
77838;SDS011;67034;43.226;27.932;2023-03-01T00:54:21;5.47;;;3.00;;
77838;SDS011;67034;43.226;27.932;2023-03-01T00:56:48;5.45;;;3.30;;
77838;SDS011;67034;43.226;27.932;2023-03-01T00:59:13;4.75;;;2.72;;
77838;SDS011;67034;43.226;27.932;2023-03-01T01:04:05;4.00;;;2.60;;
77838;SDS011;67034;43.226;27.932;2023-03-01T01:06:33;5.68;;;3.58;;
77838;SDS011;67034;43.226;27.932;2023-03-01T01:09:00;4.90;;;2.97;;
77838;SDS011;67034;43.226;27.932;2023-03-01T01:11:28;5.20;;;2.63;;
77838;SDS011;67034;43.226;27.932;2023-03-01T01:13:56;5.43;;;3.47;;
77838;SDS011;67034;43.226;27.932;2023-03-01T01:16:23;9.07;;;3.90;;
77838;SDS011;67034;43.226;27.932;2023-03-01T01:18:50;9.00;;;5.15;;
77838;SDS011;67034;43.226;27.932;2023-03-01T01:21:18;6.85;;;3.80;;
77838;SDS011;67034;43.226;27.932;2023-03-01T01:23:45;7.65;;;4.50;;
77838;SDS011;67034;43.226;27.932;2023-03-01T01:26:12;7.15;;;3.67;;
77838;SDS011;67034;43.226;27.932;2023-03-01T01:28:39;9.00;;;4.22;;
77838;SDS011;67034;43.226;27.932;2023-03-01T01:31:07;8.52;;;4.18;;
77838;SDS011;67034;43.226;27.932;2023-03-01T01:33:32;7.97;;;4.60;;
77838;SDS011;67034;43.226;27.932;2023-03-01T01:38:24;10.25;;;5.57;;
77838;SDS011;67034;43.226;27.932;2023-03-01T01:40:50;10.45;;;5.00;;
77838;SDS011;67034;43.226;27.932;2023-03-01T01:43:18;9.73;;;5.03;;
77838;SDS011;67034;43.226;27.932;2023-03-01T01:45:45;7.82;;;4.00;;
77838;SDS011;67034;43.226;27.932;2023-03-01T01:48:14;7.25;;;4.55;;
77838;SDS011;67034;43.226;27.932;2023-03-01T01:50:43;9.05;;;4.60;;
77838;SDS011;67034;43.226;27.932;2023-03-01T01:53:10;8.25;;;4.85;;
77838;SDS011;67034;43.226;27.932;2023-03-01T01:55:40;10.30;;;5.90;;
77838;SDS011;67034;43.226;27.932;2023-03-01T01:58:10;10.23;;;4.68;;
77838;SDS011;67034;43.226;27.932;2023-03-01T02:00:38;10.30;;;4.80;;
77838;SDS011;67034;43.226;27.932;2023-03-01T02:03:04;9.88;;;5.45;;
77838;SDS011;67034;43.226;27.932;2023-03-01T02:05:36;9.73;;;5.63;;
77838;SDS011;67034;43.226;27.932;2023-03-01T02:08:08;10.30;;;5.53;;
77838;SDS011;67034;43.226;27.932;2023-03-01T02:10:37;11.15;;;6.25;;
77838;SDS011;67034;43.226;27.932;2023-03-01T02:13:04;14.48;;;6.35;;
77838;SDS011;67034;43.226;27.932;2023-03-01T02:15:31;9.45;;;5.47;;
77838;SDS011;67034;43.226;27.932;2023-03-01T02:17:58;11.15;;;5.63;;
77838;SDS011;67034;43.226;27.932;2023-03-01T02:20:26;9.80;;;5.70;;
77838;SDS011;67034;43.226;27.932;2023-03-01T02:23:01;9.32;;;5.65;;
77838;SDS011;67034;43.226;27.932;2023-03-01T02:25:36;12.43;;;7.68;;
77838;SDS011;67034;43.226;27.932;2023-03-01T02:28:08;11.55;;;5.25;;
77838;SDS011;67034;43.226;27.932;2023-03-01T02:30:38;6.32;;;3.70;;
77838;SDS011;67034;43.226;27.932;2023-03-01T02:33:24;11.00;;;5.63;;
77838;SDS011;67034;43.226;27.932;2023-03-01T02:35:50;10.63;;;5.38;;
77838;SDS011;67034;43.226;27.932;2023-03-01T02:38:18;13.05;;;6.55;;
77838;SDS011;67034;43.226;27.932;2023-03-01T02:40:44;8.27;;;5.10;;
77838;SDS011;67034;43.226;27.932;2023-03-01T02:45:42;13.38;;;6.80;;
77838;SDS011;67034;43.226;27.932;2023-03-01T02:48:12;9.88;;;5.47;;
77838;SDS011;67034;43.226;27.932;2023-03-01T02:50:45;12.90;;;6.32;;
77838;SDS011;67034;43.226;27.932;2023-03-01T02:53:21;11.50;;;6.13;;
77838;SDS011;67034;43.226;27.932;2023-03-01T02:55:52;11.10;;;5.60;;
77838;SDS011;67034;43.226;27.932;2023-03-01T02:58:18;13.07;;;7.20;;
77838;SDS011;67034;43.226;27.932;2023-03-01T03:03:14;12.68;;;6.97;;
77838;SDS011;67034;43.226;27.932;2023-03-01T03:05:41;7.68;;;5.28;;
77838;SDS011;67034;43.226;27.932;2023-03-01T03:08:07;11.27;;;6.55;;
77838;SDS011;67034;43.226;27.932;2023-03-01T03:10:33;11.98;;;6.30;;
77838;SDS011;67034;43.226;27.932;2023-03-01T03:13:02;14.90;;;8.13;;
77838;SDS011;67034;43.226;27.932;2023-03-01T03:15:29;15.15;;;7.10;;
77838;SDS011;67034;43.226;27.932;2023-03-01T03:17:57;15.52;;;5.65;;
77838;SDS011;67034;43.226;27.932;2023-03-01T03:20:25;13.80;;;7.38;;
77838;SDS011;67034;43.226;27.932;2023-03-01T03:22:52;12.45;;;6.75;;
77838;SDS011;67034;43.226;27.932;2023-03-01T03:25:20;12.43;;;6.82;;
77838;SDS011;67034;43.226;27.932;2023-03-01T03:27:47;11.73;;;5.82;;
77838;SDS011;67034;43.226;27.932;2023-03-01T03:30:15;12.88;;;6.43;;
77838;SDS011;67034;43.226;27.932;2023-03-01T03:32:43;14.65;;;7.38;;
77838;SDS011;67034;43.226;27.932;2023-03-01T03:35:21;14.43;;;6.35;;
77838;SDS011;67034;43.226;27.932;2023-03-01T03:37:49;14.07;;;7.00;;
77838;SDS011;67034;43.226;27.932;2023-03-01T03:40:29;13.52;;;5.78;;
77838;SDS011;67034;43.226;27.932;2023-03-01T03:45:43;17.23;;;9.27;;
77838;SDS011;67034;43.226;27.932;2023-03-01T03:48:09;16.10;;;7.25;;
77838;SDS011;67034;43.226;27.932;2023-03-01T03:50:37;17.90;;;9.43;;
77838;SDS011;67034;43.226;27.932;2023-03-01T03:53:03;20.30;;;9.48;;
77838;SDS011;67034;43.226;27.932;2023-03-01T03:55:32;15.20;;;7.68;;
77838;SDS011;67034;43.226;27.932;2023-03-01T03:57:59;14.85;;;6.75;;
77838;SDS011;67034;43.226;27.932;2023-03-01T04:00:32;14.23;;;7.47;;
77838;SDS011;67034;43.226;27.932;2023-03-01T04:02:58;14.80;;;7.47;;
77838;SDS011;67034;43.226;27.932;2023-03-01T04:05:26;16.05;;;7.70;;
77838;SDS011;67034;43.226;27.932;2023-03-01T04:07:54;19.50;;;10.48;;
77838;SDS011;67034;43.226;27.932;2023-03-01T04:10:33;19.55;;;8.82;;
77838;SDS011;67034;43.226;27.932;2023-03-01T04:13:01;14.45;;;6.82;;
77838;SDS011;67034;43.226;27.932;2023-03-01T04:15:27;17.30;;;8.45;;
77838;SDS011;67034;43.226;27.932;2023-03-01T04:17:53;19.00;;;7.55;;
77838;SDS011;67034;43.226;27.932;2023-03-01T04:20:20;16.85;;;9.23;;
77838;SDS011;67034;43.226;27.932;2023-03-01T04:22:51;19.63;;;10.35;;
77838;SDS011;67034;43.226;27.932;2023-03-01T04:25:19;15.77;;;6.95;;
77838;SDS011;67034;43.226;27.932;2023-03-01T04:27:45;17.75;;;8.07;;
77838;SDS011;67034;43.226;27.932;2023-03-01T04:30:11;13.15;;;7.13;;
77838;SDS011;67034;43.226;27.932;2023-03-01T04:32:37;13.75;;;7.35;;
77838;SDS011;67034;43.226;27.932;2023-03-01T04:35:03;14.93;;;7.60;;
77838;SDS011;67034;43.226;27.932;2023-03-01T04:37:29;19.23;;;8.68;;
77838;SDS011;67034;43.226;27.932;2023-03-01T04:39:55;16.02;;;7.65;;
77838;SDS011;67034;43.226;27.932;2023-03-01T04:42:22;18.70;;;9.73;;
77838;SDS011;67034;43.226;27.932;2023-03-01T04:44:48;24.60;;;10.23;;
77838;SDS011;67034;43.226;27.932;2023-03-01T04:47:16;15.30;;;9.45;;
77838;SDS011;67034;43.226;27.932;2023-03-01T04:52:07;15.65;;;7.70;;
77838;SDS011;67034;43.226;27.932;2023-03-01T04:54:34;15.30;;;8.13;;
77838;SDS011;67034;43.226;27.932;2023-03-01T04:57:01;10.35;;;6.53;;
77838;SDS011;67034;43.226;27.932;2023-03-01T04:59:28;15.10;;;7.30;;
77838;SDS011;67034;43.226;27.932;2023-03-01T05:01:55;15.65;;;7.68;;
77838;SDS011;67034;43.226;27.932;2023-03-01T05:04:21;13.90;;;7.25;;
77838;SDS011;67034;43.226;27.932;2023-03-01T05:06:47;15.05;;;7.28;;
77838;SDS011;67034;43.226;27.932;2023-03-01T05:09:13;12.77;;;7.38;;
77838;SDS011;67034;43.226;27.932;2023-03-01T05:11:38;17.55;;;8.50;;
77838;SDS011;67034;43.226;27.932;2023-03-01T05:16:32;15.45;;;7.10;;
77838;SDS011;67034;43.226;27.932;2023-03-01T05:18:58;15.15;;;7.95;;
77838;SDS011;67034;43.226;27.932;2023-03-01T05:21:24;15.60;;;8.00;;
77838;SDS011;67034;43.226;27.932;2023-03-01T05:23:51;11.93;;;6.57;;
77838;SDS011;67034;43.226;27.932;2023-03-01T05:26:18;16.23;;;8.05;;
77838;SDS011;67034;43.226;27.932;2023-03-01T05:28:44;12.55;;;6.85;;
77838;SDS011;67034;43.226;27.932;2023-03-01T05:31:10;11.85;;;6.63;;
77838;SDS011;67034;43.226;27.932;2023-03-01T05:33:37;14.85;;;8.68;;
77838;SDS011;67034;43.226;27.932;2023-03-01T05:36:05;14.68;;;6.25;;
77838;SDS011;67034;43.226;27.932;2023-03-01T05:38:32;12.40;;;6.68;;
77838;SDS011;67034;43.226;27.932;2023-03-01T05:40:59;14.50;;;6.95;;
77838;SDS011;67034;43.226;27.932;2023-03-01T05:43:25;14.93;;;7.75;;
77838;SDS011;67034;43.226;27.932;2023-03-01T05:45:51;12.82;;;7.32;;
77838;SDS011;67034;43.226;27.932;2023-03-01T05:48:17;15.73;;;7.55;;
77838;SDS011;67034;43.226;27.932;2023-03-01T05:50:45;13.82;;;7.40;;
77838;SDS011;67034;43.226;27.932;2023-03-01T05:53:13;16.30;;;7.72;;
77838;SDS011;67034;43.226;27.932;2023-03-01T05:55:41;13.85;;;7.75;;
77838;SDS011;67034;43.226;27.932;2023-03-01T05:58:09;15.23;;;8.02;;
77838;SDS011;67034;43.226;27.932;2023-03-01T06:00:41;12.95;;;7.78;;
77838;SDS011;67034;43.226;27.932;2023-03-01T06:03:09;17.05;;;8.25;;
77838;SDS011;67034;43.226;27.932;2023-03-01T06:05:36;16.17;;;8.60;;
77838;SDS011;67034;43.226;27.932;2023-03-01T06:08:03;13.88;;;7.03;;
77838;SDS011;67034;43.226;27.932;2023-03-01T06:10:29;17.52;;;8.52;;
77838;SDS011;67034;43.226;27.932;2023-03-01T06:15:20;19.33;;;9.52;;
77838;SDS011;67034;43.226;27.932;2023-03-01T06:17:46;17.85;;;7.43;;
77838;SDS011;67034;43.226;27.932;2023-03-01T06:20:13;14.20;;;8.73;;
77838;SDS011;67034;43.226;27.932;2023-03-01T06:22:40;14.18;;;7.80;;
77838;SDS011;67034;43.226;27.932;2023-03-01T06:25:08;17.05;;;7.95;;
77838;SDS011;67034;43.226;27.932;2023-03-01T06:27:34;16.95;;;7.65;;
77838;SDS011;67034;43.226;27.932;2023-03-01T06:30:00;12.55;;;6.93;;
77838;SDS011;67034;43.226;27.932;2023-03-01T06:32:26;16.35;;;7.35;;
77838;SDS011;67034;43.226;27.932;2023-03-01T06:34:52;18.35;;;9.75;;
77838;SDS011;67034;43.226;27.932;2023-03-01T06:37:17;16.15;;;8.10;;
77838;SDS011;67034;43.226;27.932;2023-03-01T06:42:10;10.57;;;6.60;;
77838;SDS011;67034;43.226;27.932;2023-03-01T06:44:36;13.88;;;6.15;;
77838;SDS011;67034;43.226;27.932;2023-03-01T06:51:53;13.75;;;7.78;;
77838;SDS011;67034;43.226;27.932;2023-03-01T06:54:22;13.88;;;6.35;;
77838;SDS011;67034;43.226;27.932;2023-03-01T06:56:48;12.80;;;7.00;;
77838;SDS011;67034;43.226;27.932;2023-03-01T07:01:40;12.40;;;7.50;;
77838;SDS011;67034;43.226;27.932;2023-03-01T07:04:06;16.40;;;9.13;;
77838;SDS011;67034;43.226;27.932;2023-03-01T07:08:57;16.75;;;8.52;;
77838;SDS011;67034;43.226;27.932;2023-03-01T07:11:23;14.90;;;7.97;;
77838;SDS011;67034;43.226;27.932;2023-03-01T07:16:15;14.20;;;7.15;;
77838;SDS011;67034;43.226;27.932;2023-03-01T07:18:41;12.65;;;7.63;;
77838;SDS011;67034;43.226;27.932;2023-03-01T07:21:07;16.50;;;9.00;;
77838;SDS011;67034;43.226;27.932;2023-03-01T07:23:34;16.42;;;9.13;;
77838;SDS011;67034;43.226;27.932;2023-03-01T07:26:03;17.75;;;9.77;;
77838;SDS011;67034;43.226;27.932;2023-03-01T07:28:29;17.83;;;10.15;;
77838;SDS011;67034;43.226;27.932;2023-03-01T07:30:58;17.42;;;8.52;;
77838;SDS011;67034;43.226;27.932;2023-03-01T07:33:27;13.15;;;7.72;;
77838;SDS011;67034;43.226;27.932;2023-03-01T07:35:55;14.57;;;7.25;;
77838;SDS011;67034;43.226;27.932;2023-03-01T07:38:21;19.98;;;10.75;;
77838;SDS011;67034;43.226;27.932;2023-03-01T07:40:49;15.52;;;8.15;;
77838;SDS011;67034;43.226;27.932;2023-03-01T07:45:40;13.57;;;7.00;;
77838;SDS011;67034;43.226;27.932;2023-03-01T07:50:33;17.60;;;8.38;;
77838;SDS011;67034;43.226;27.932;2023-03-01T07:52:59;12.40;;;7.03;;
77838;SDS011;67034;43.226;27.932;2023-03-01T07:55:24;16.38;;;9.30;;
77838;SDS011;67034;43.226;27.932;2023-03-01T08:00:16;20.40;;;9.65;;
77838;SDS011;67034;43.226;27.932;2023-03-01T08:02:42;18.23;;;10.13;;
77838;SDS011;67034;43.226;27.932;2023-03-01T08:05:08;15.88;;;8.55;;
77838;SDS011;67034;43.226;27.932;2023-03-01T08:07:36;18.90;;;9.38;;
77838;SDS011;67034;43.226;27.932;2023-03-01T08:10:02;15.20;;;8.50;;
77838;SDS011;67034;43.226;27.932;2023-03-01T08:12:28;13.73;;;7.45;;
77838;SDS011;67034;43.226;27.932;2023-03-01T08:14:54;17.52;;;9.00;;
77838;SDS011;67034;43.226;27.932;2023-03-01T08:19:46;14.27;;;8.55;;
77838;SDS011;67034;43.226;27.932;2023-03-01T08:24:38;13.07;;;7.45;;
77838;SDS011;67034;43.226;27.932;2023-03-01T08:27:04;17.38;;;10.90;;
77838;SDS011;67034;43.226;27.932;2023-03-01T08:29:31;15.80;;;8.98;;
77838;SDS011;67034;43.226;27.932;2023-03-01T08:31:57;18.35;;;9.00;;
77838;SDS011;67034;43.226;27.932;2023-03-01T08:36:48;18.27;;;8.13;;
77838;SDS011;67034;43.226;27.932;2023-03-01T08:39:15;21.08;;;14.27;;
77838;SDS011;67034;43.226;27.932;2023-03-01T08:41:44;11.50;;;6.10;;
77838;SDS011;67034;43.226;27.932;2023-03-01T08:44:11;19.17;;;10.93;;
77838;SDS011;67034;43.226;27.932;2023-03-01T08:46:39;14.63;;;8.85;;
77838;SDS011;67034;43.226;27.932;2023-03-01T08:49:06;16.73;;;8.90;;
77838;SDS011;67034;43.226;27.932;2023-03-01T08:51:32;20.17;;;12.13;;
77838;SDS011;67034;43.226;27.932;2023-03-01T08:54:01;22.05;;;11.60;;
77838;SDS011;67034;43.226;27.932;2023-03-01T08:56:28;23.30;;;11.07;;
77838;SDS011;67034;43.226;27.932;2023-03-01T08:58:55;13.73;;;7.82;;
77838;SDS011;67034;43.226;27.932;2023-03-01T09:01:21;14.43;;;7.95;;
77838;SDS011;67034;43.226;27.932;2023-03-01T09:06:12;19.25;;;10.68;;
77838;SDS011;67034;43.226;27.932;2023-03-01T09:08:39;13.98;;;7.60;;
77838;SDS011;67034;43.226;27.932;2023-03-01T09:11:07;16.65;;;9.00;;
77838;SDS011;67034;43.226;27.932;2023-03-01T09:13:35;17.50;;;8.85;;
77838;SDS011;67034;43.226;27.932;2023-03-01T09:18:29;27.92;;;12.82;;
77838;SDS011;67034;43.226;27.932;2023-03-01T09:21:00;17.45;;;9.98;;
77838;SDS011;67034;43.226;27.932;2023-03-01T09:23:26;21.08;;;9.38;;
77838;SDS011;67034;43.226;27.932;2023-03-01T09:28:18;21.17;;;11.38;;
77838;SDS011;67034;43.226;27.932;2023-03-01T09:33:10;19.08;;;9.63;;
77838;SDS011;67034;43.226;27.932;2023-03-01T09:35:39;18.17;;;9.20;;
77838;SDS011;67034;43.226;27.932;2023-03-01T09:38:11;24.05;;;11.63;;
77838;SDS011;67034;43.226;27.932;2023-03-01T09:40:37;16.23;;;8.13;;
77838;SDS011;67034;43.226;27.932;2023-03-01T09:43:11;28.20;;;11.95;;
77838;SDS011;67034;43.226;27.932;2023-03-01T09:45:43;21.23;;;10.02;;
77838;SDS011;67034;43.226;27.932;2023-03-01T09:48:13;15.27;;;8.30;;
77838;SDS011;67034;43.226;27.932;2023-03-01T09:50:43;17.17;;;8.82;;
77838;SDS011;67034;43.226;27.932;2023-03-01T09:53:13;18.55;;;9.43;;
77838;SDS011;67034;43.226;27.932;2023-03-01T09:55:42;18.23;;;10.50;;
77838;SDS011;67034;43.226;27.932;2023-03-01T09:58:26;17.83;;;8.80;;
77838;SDS011;67034;43.226;27.932;2023-03-01T10:00:57;13.60;;;7.18;;
77838;SDS011;67034;43.226;27.932;2023-03-01T10:03:31;15.40;;;7.47;;
77838;SDS011;67034;43.226;27.932;2023-03-01T10:06:04;22.65;;;11.63;;
77838;SDS011;67034;43.226;27.932;2023-03-01T10:08:35;12.68;;;8.07;;
77838;SDS011;67034;43.226;27.932;2023-03-01T10:11:04;14.83;;;7.73;;
77838;SDS011;67034;43.226;27.932;2023-03-01T10:13:37;18.65;;;8.43;;
77838;SDS011;67034;43.226;27.932;2023-03-01T10:16:12;14.32;;;7.30;;
77838;SDS011;67034;43.226;27.932;2023-03-01T10:18:42;12.15;;;7.50;;
77838;SDS011;67034;43.226;27.932;2023-03-01T10:21:13;15.27;;;7.63;;
77838;SDS011;67034;43.226;27.932;2023-03-01T10:23:41;19.05;;;7.15;;
77838;SDS011;67034;43.226;27.932;2023-03-01T10:28:58;25.73;;;12.60;;
77838;SDS011;67034;43.226;27.932;2023-03-01T10:31:29;13.63;;;7.55;;
77838;SDS011;67034;43.226;27.932;2023-03-01T10:34:06;13.32;;;6.78;;
77838;SDS011;67034;43.226;27.932;2023-03-01T10:36:34;13.40;;;6.88;;
77838;SDS011;67034;43.226;27.932;2023-03-01T10:39:03;13.38;;;7.78;;
77838;SDS011;67034;43.226;27.932;2023-03-01T10:41:37;12.98;;;7.57;;
77838;SDS011;67034;43.226;27.932;2023-03-01T10:44:34;10.98;;;6.60;;
77838;SDS011;67034;43.226;27.932;2023-03-01T10:47:02;13.75;;;6.53;;
77838;SDS011;67034;43.226;27.932;2023-03-01T10:49:29;13.43;;;7.50;;
77838;SDS011;67034;43.226;27.932;2023-03-01T10:51:55;16.88;;;8.63;;
77838;SDS011;67034;43.226;27.932;2023-03-01T10:54:22;11.88;;;8.18;;
77838;SDS011;67034;43.226;27.932;2023-03-01T10:56:53;13.35;;;8.23;;
77838;SDS011;67034;43.226;27.932;2023-03-01T10:59:27;12.00;;;7.45;;
77838;SDS011;67034;43.226;27.932;2023-03-01T11:02:02;12.63;;;6.75;;
77838;SDS011;67034;43.226;27.932;2023-03-01T11:04:41;10.70;;;6.65;;
77838;SDS011;67034;43.226;27.932;2023-03-01T11:07:22;14.55;;;7.15;;
77838;SDS011;67034;43.226;27.932;2023-03-01T11:12:13;10.48;;;5.75;;
77838;SDS011;67034;43.226;27.932;2023-03-01T11:14:45;14.88;;;8.48;;
77838;SDS011;67034;43.226;27.932;2023-03-01T11:17:15;14.65;;;6.57;;
77838;SDS011;67034;43.226;27.932;2023-03-01T11:19:44;18.85;;;9.05;;
77838;SDS011;67034;43.226;27.932;2023-03-01T11:22:25;13.30;;;7.32;;
77838;SDS011;67034;43.226;27.932;2023-03-01T11:24:51;17.00;;;10.65;;
77838;SDS011;67034;43.226;27.932;2023-03-01T11:27:19;13.57;;;7.10;;
77838;SDS011;67034;43.226;27.932;2023-03-01T11:29:48;9.00;;;6.53;;
77838;SDS011;67034;43.226;27.932;2023-03-01T11:32:18;10.32;;;6.20;;
77838;SDS011;67034;43.226;27.932;2023-03-01T11:34:49;11.48;;;7.13;;
77838;SDS011;67034;43.226;27.932;2023-03-01T11:37:23;10.88;;;6.45;;
77838;SDS011;67034;43.226;27.932;2023-03-01T11:39:59;12.40;;;5.93;;
77838;SDS011;67034;43.226;27.932;2023-03-01T11:42:40;12.38;;;7.32;;
77838;SDS011;67034;43.226;27.932;2023-03-01T11:45:13;10.88;;;7.00;;
77838;SDS011;67034;43.226;27.932;2023-03-01T11:50:26;9.98;;;6.80;;
77838;SDS011;67034;43.226;27.932;2023-03-01T11:53:01;12.80;;;7.28;;
77838;SDS011;67034;43.226;27.932;2023-03-01T11:55:50;10.77;;;8.02;;
77838;SDS011;67034;43.226;27.932;2023-03-01T12:01:30;7.63;;;4.80;;
77838;SDS011;67034;43.226;27.932;2023-03-01T12:06:59;9.85;;;5.95;;
77838;SDS011;67034;43.226;27.932;2023-03-01T12:09:30;10.25;;;6.10;;
77838;SDS011;67034;43.226;27.932;2023-03-01T12:17:55;11.27;;;6.55;;
77838;SDS011;67034;43.226;27.932;2023-03-01T12:20:32;10.43;;;6.60;;
77838;SDS011;67034;43.226;27.932;2023-03-01T12:26:06;10.38;;;5.70;;
77838;SDS011;67034;43.226;27.932;2023-03-01T12:28:45;9.50;;;6.25;;
77838;SDS011;67034;43.226;27.932;2023-03-01T12:31:29;12.10;;;6.78;;
77838;SDS011;67034;43.226;27.932;2023-03-01T12:34:34;13.73;;;8.63;;
77838;SDS011;67034;43.226;27.932;2023-03-01T12:37:18;12.95;;;8.07;;
77838;SDS011;67034;43.226;27.932;2023-03-01T12:39:54;17.60;;;7.25;;
77838;SDS011;67034;43.226;27.932;2023-03-01T12:47:55;10.60;;;6.05;;
77838;SDS011;67034;43.226;27.932;2023-03-01T12:50:33;9.60;;;5.15;;
77838;SDS011;67034;43.226;27.932;2023-03-01T12:53:04;8.25;;;5.00;;
77838;SDS011;67034;43.226;27.932;2023-03-01T12:58:01;8.43;;;4.45;;
77838;SDS011;67034;43.226;27.932;2023-03-01T13:00:35;9.45;;;4.90;;
77838;SDS011;67034;43.226;27.932;2023-03-01T13:05:39;9.05;;;4.82;;
77838;SDS011;67034;43.226;27.932;2023-03-01T13:08:10;9.38;;;5.20;;
77838;SDS011;67034;43.226;27.932;2023-03-01T13:10:47;9.60;;;4.88;;
77838;SDS011;67034;43.226;27.932;2023-03-01T13:13:19;7.85;;;5.18;;
77838;SDS011;67034;43.226;27.932;2023-03-01T13:15:45;11.15;;;6.97;;
77838;SDS011;67034;43.226;27.932;2023-03-01T13:20:59;8.68;;;5.15;;
77838;SDS011;67034;43.226;27.932;2023-03-01T13:23:31;6.90;;;4.53;;
77838;SDS011;67034;43.226;27.932;2023-03-01T13:26:02;7.32;;;5.40;;
77838;SDS011;67034;43.226;27.932;2023-03-01T13:28:40;10.73;;;5.20;;
77838;SDS011;67034;43.226;27.932;2023-03-01T13:37:24;14.73;;;5.10;;
77838;SDS011;67034;43.226;27.932;2023-03-01T13:39:54;8.45;;;4.45;;
77838;SDS011;67034;43.226;27.932;2023-03-01T13:48:01;10.23;;;5.35;;
77838;SDS011;67034;43.226;27.932;2023-03-01T13:50:32;8.13;;;5.80;;
77838;SDS011;67034;43.226;27.932;2023-03-01T13:53:03;10.30;;;5.57;;
77838;SDS011;67034;43.226;27.932;2023-03-01T13:55:34;8.23;;;5.65;;
77838;SDS011;67034;43.226;27.932;2023-03-01T13:58:12;13.65;;;6.40;;
77838;SDS011;67034;43.226;27.932;2023-03-01T14:00:41;10.45;;;5.05;;
77838;SDS011;67034;43.226;27.932;2023-03-01T14:03:11;9.23;;;5.33;;
77838;SDS011;67034;43.226;27.932;2023-03-01T14:05:39;7.35;;;4.35;;
77838;SDS011;67034;43.226;27.932;2023-03-01T14:08:17;15.02;;;5.88;;
77838;SDS011;67034;43.226;27.932;2023-03-01T14:10:48;11.20;;;5.63;;
77838;SDS011;67034;43.226;27.932;2023-03-01T14:13:28;9.70;;;5.95;;
77838;SDS011;67034;43.226;27.932;2023-03-01T14:16:09;13.07;;;6.18;;
77838;SDS011;67034;43.226;27.932;2023-03-01T14:18:47;9.25;;;5.78;;
77838;SDS011;67034;43.226;27.932;2023-03-01T14:21:17;7.73;;;5.47;;
77838;SDS011;67034;43.226;27.932;2023-03-01T14:26:09;9.27;;;5.55;;
77838;SDS011;67034;43.226;27.932;2023-03-01T14:28:38;9.93;;;5.78;;
77838;SDS011;67034;43.226;27.932;2023-03-01T14:33:56;9.18;;;6.20;;
77838;SDS011;67034;43.226;27.932;2023-03-01T14:36:25;10.05;;;5.47;;
77838;SDS011;67034;43.226;27.932;2023-03-01T14:38:53;10.40;;;4.93;;
77838;SDS011;67034;43.226;27.932;2023-03-01T14:41:20;8.95;;;5.35;;
77838;SDS011;67034;43.226;27.932;2023-03-01T14:43:50;11.95;;;5.72;;
77838;SDS011;67034;43.226;27.932;2023-03-01T14:46:19;11.32;;;6.25;;
77838;SDS011;67034;43.226;27.932;2023-03-01T14:48:48;10.00;;;5.95;;
77838;SDS011;67034;43.226;27.932;2023-03-01T14:51:14;8.85;;;5.30;;
77838;SDS011;67034;43.226;27.932;2023-03-01T14:53:41;8.48;;;5.90;;
77838;SDS011;67034;43.226;27.932;2023-03-01T14:56:12;12.85;;;6.47;;
77838;SDS011;67034;43.226;27.932;2023-03-01T14:58:39;9.18;;;5.10;;
77838;SDS011;67034;43.226;27.932;2023-03-01T15:01:07;9.77;;;5.75;;
77838;SDS011;67034;43.226;27.932;2023-03-01T15:03:39;9.07;;;5.93;;
77838;SDS011;67034;43.226;27.932;2023-03-01T15:06:09;10.85;;;6.60;;
77838;SDS011;67034;43.226;27.932;2023-03-01T15:08:37;9.75;;;6.15;;
77838;SDS011;67034;43.226;27.932;2023-03-01T15:11:16;11.10;;;5.53;;
77838;SDS011;67034;43.226;27.932;2023-03-01T15:13:47;11.43;;;5.68;;
77838;SDS011;67034;43.226;27.932;2023-03-01T15:16:15;8.63;;;4.80;;
77838;SDS011;67034;43.226;27.932;2023-03-01T15:18:45;9.20;;;5.70;;
77838;SDS011;67034;43.226;27.932;2023-03-01T15:21:15;9.15;;;5.57;;
77838;SDS011;67034;43.226;27.932;2023-03-01T15:23:47;9.05;;;5.57;;
77838;SDS011;67034;43.226;27.932;2023-03-01T15:26:21;11.38;;;5.80;;
77838;SDS011;67034;43.226;27.932;2023-03-01T15:28:49;8.45;;;5.38;;
77838;SDS011;67034;43.226;27.932;2023-03-01T15:31:18;8.55;;;5.90;;
77838;SDS011;67034;43.226;27.932;2023-03-01T15:33:46;9.23;;;6.15;;
77838;SDS011;67034;43.226;27.932;2023-03-01T15:39:22;11.65;;;5.95;;
77838;SDS011;67034;43.226;27.932;2023-03-01T15:42:05;10.23;;;5.60;;
77838;SDS011;67034;43.226;27.932;2023-03-01T15:44:33;12.98;;;6.82;;
77838;SDS011;67034;43.226;27.932;2023-03-01T15:47:01;10.43;;;6.35;;
77838;SDS011;67034;43.226;27.932;2023-03-01T15:49:35;7.50;;;5.13;;
77838;SDS011;67034;43.226;27.932;2023-03-01T15:52:04;12.38;;;6.53;;
77838;SDS011;67034;43.226;27.932;2023-03-01T15:54:31;12.57;;;6.30;;
77838;SDS011;67034;43.226;27.932;2023-03-01T15:56:57;11.52;;;5.90;;
77838;SDS011;67034;43.226;27.932;2023-03-01T15:59:22;14.48;;;6.93;;
77838;SDS011;67034;43.226;27.932;2023-03-01T16:01:48;11.23;;;5.95;;
77838;SDS011;67034;43.226;27.932;2023-03-01T16:04:16;12.82;;;6.88;;
77838;SDS011;67034;43.226;27.932;2023-03-01T16:06:48;13.50;;;6.80;;
77838;SDS011;67034;43.226;27.932;2023-03-01T16:09:19;12.20;;;6.88;;
77838;SDS011;67034;43.226;27.932;2023-03-01T16:11:45;13.43;;;7.82;;
77838;SDS011;67034;43.226;27.932;2023-03-01T16:16:37;11.23;;;5.22;;
77838;SDS011;67034;43.226;27.932;2023-03-01T16:19:02;10.80;;;6.07;;
77838;SDS011;67034;43.226;27.932;2023-03-01T16:21:30;12.27;;;6.70;;
77838;SDS011;67034;43.226;27.932;2023-03-01T16:23:55;13.32;;;7.20;;
77838;SDS011;67034;43.226;27.932;2023-03-01T16:28:46;17.60;;;7.60;;
77838;SDS011;67034;43.226;27.932;2023-03-01T16:33:41;15.93;;;6.72;;
77838;SDS011;67034;43.226;27.932;2023-03-01T16:38:35;11.10;;;6.75;;
77838;SDS011;67034;43.226;27.932;2023-03-01T16:41:01;14.77;;;9.02;;
77838;SDS011;67034;43.226;27.932;2023-03-01T16:45:52;17.15;;;7.85;;
77838;SDS011;67034;43.226;27.932;2023-03-01T16:50:43;11.65;;;6.25;;
77838;SDS011;67034;43.226;27.932;2023-03-01T16:55:36;10.13;;;6.38;;
77838;SDS011;67034;43.226;27.932;2023-03-01T16:58:03;9.60;;;6.85;;
77838;SDS011;67034;43.226;27.932;2023-03-01T17:00:29;12.82;;;6.65;;
77838;SDS011;67034;43.226;27.932;2023-03-01T17:05:20;11.48;;;6.15;;
77838;SDS011;67034;43.226;27.932;2023-03-01T17:07:48;10.35;;;6.18;;
77838;SDS011;67034;43.226;27.932;2023-03-01T17:12:41;12.00;;;6.47;;
77838;SDS011;67034;43.226;27.932;2023-03-01T17:15:08;13.00;;;7.13;;